sensor_id;sensor_type;location;lat;lon;timestamp;temperature;humidity
41939;DHT22;23057;48.554;14.454;2023-04-24T00:01:00;7.70;99.90
41939;DHT22;23057;48.554;14.454;2023-04-24T00:03:31;7.80;99.90
41939;DHT22;23057;48.554;14.454;2023-04-24T00:06:03;7.80;99.90
41939;DHT22;23057;48.554;14.454;2023-04-24T00:08:34;7.50;99.90
41939;DHT22;23057;48.554;14.454;2023-04-24T00:11:06;7.00;99.90
41939;DHT22;23057;48.554;14.454;2023-04-24T00:13:37;6.90;99.90
41939;DHT22;23057;48.554;14.454;2023-04-24T00:16:08;6.90;99.90
41939;DHT22;23057;48.554;14.454;2023-04-24T00:18:39;7.00;99.90
41939;DHT22;23057;48.554;14.454;2023-04-24T00:21:10;7.10;99.90
41939;DHT22;23057;48.554;14.454;2023-04-24T00:23:41;7.10;99.90
41939;DHT22;23057;48.554;14.454;2023-04-24T00:26:12;7.10;99.90
41939;DHT22;23057;48.554;14.454;2023-04-24T00:28:42;7.30;99.90
41939;DHT22;23057;48.554;14.454;2023-04-24T00:31:13;7.20;99.90
41939;DHT22;23057;48.554;14.454;2023-04-24T00:33:44;7.30;99.90
41939;DHT22;23057;48.554;14.454;2023-04-24T00:36:15;7.20;99.90
41939;DHT22;23057;48.554;14.454;2023-04-24T00:38:46;7.20;99.90
41939;DHT22;23057;48.554;14.454;2023-04-24T00:41:17;7.30;99.90
41939;DHT22;23057;48.554;14.454;2023-04-24T00:43:48;7.50;99.90
41939;DHT22;23057;48.554;14.454;2023-04-24T00:46:19;7.50;99.90
41939;DHT22;23057;48.554;14.454;2023-04-24T00:48:51;7.60;99.90
41939;DHT22;23057;48.554;14.454;2023-04-24T00:51:22;7.70;99.90
41939;DHT22;23057;48.554;14.454;2023-04-24T00:53:54;7.70;99.90
41939;DHT22;23057;48.554;14.454;2023-04-24T00:56:25;7.60;99.90
41939;DHT22;23057;48.554;14.454;2023-04-24T00:58:57;7.60;99.90
41939;DHT22;23057;48.554;14.454;2023-04-24T01:01:29;7.50;99.90
41939;DHT22;23057;48.554;14.454;2023-04-24T01:04:00;7.50;99.90
41939;DHT22;23057;48.554;14.454;2023-04-24T01:06:32;7.60;99.90
41939;DHT22;23057;48.554;14.454;2023-04-24T01:09:04;7.60;99.90
41939;DHT22;23057;48.554;14.454;2023-04-24T01:11:36;7.60;99.90
41939;DHT22;23057;48.554;14.454;2023-04-24T01:14:07;7.60;99.90
41939;DHT22;23057;48.554;14.454;2023-04-24T01:16:38;7.60;99.90
41939;DHT22;23057;48.554;14.454;2023-04-24T01:19:09;7.70;99.90
41939;DHT22;23057;48.554;14.454;2023-04-24T01:21:42;7.80;99.90
41939;DHT22;23057;48.554;14.454;2023-04-24T01:24:14;7.90;99.90
41939;DHT22;23057;48.554;14.454;2023-04-24T01:26:45;7.80;99.90
41939;DHT22;23057;48.554;14.454;2023-04-24T01:29:17;7.80;99.90
41939;DHT22;23057;48.554;14.454;2023-04-24T01:31:47;7.90;99.90
41939;DHT22;23057;48.554;14.454;2023-04-24T01:34:18;7.90;99.90
41939;DHT22;23057;48.554;14.454;2023-04-24T01:36:49;8.00;99.90
41939;DHT22;23057;48.554;14.454;2023-04-24T01:39:21;8.10;99.90
41939;DHT22;23057;48.554;14.454;2023-04-24T01:41:53;8.10;99.90
41939;DHT22;23057;48.554;14.454;2023-04-24T01:44:25;8.20;99.90
41939;DHT22;23057;48.554;14.454;2023-04-24T01:46:56;8.20;99.90
41939;DHT22;23057;48.554;14.454;2023-04-24T01:49:27;8.20;99.90
41939;DHT22;23057;48.554;14.454;2023-04-24T01:51:58;8.20;99.90
41939;DHT22;23057;48.554;14.454;2023-04-24T01:54:29;8.30;99.90
41939;DHT22;23057;48.554;14.454;2023-04-24T01:57:00;8.20;99.90
41939;DHT22;23057;48.554;14.454;2023-04-24T01:59:32;8.30;99.90
41939;DHT22;23057;48.554;14.454;2023-04-24T02:02:04;8.30;99.90
41939;DHT22;23057;48.554;14.454;2023-04-24T02:04:35;8.40;99.90
41939;DHT22;23057;48.554;14.454;2023-04-24T02:07:06;8.40;99.90
41939;DHT22;23057;48.554;14.454;2023-04-24T02:09:37;8.60;99.90
41939;DHT22;23057;48.554;14.454;2023-04-24T02:12:07;8.70;99.90
41939;DHT22;23057;48.554;14.454;2023-04-24T02:14:38;8.70;99.90
41939;DHT22;23057;48.554;14.454;2023-04-24T02:17:09;8.80;99.90
41939;DHT22;23057;48.554;14.454;2023-04-24T02:19:42;8.90;99.90
41939;DHT22;23057;48.554;14.454;2023-04-24T02:22:13;8.90;99.90
41939;DHT22;23057;48.554;14.454;2023-04-24T02:24:44;8.90;99.90
41939;DHT22;23057;48.554;14.454;2023-04-24T02:27:14;8.90;99.90
41939;DHT22;23057;48.554;14.454;2023-04-24T02:29:45;8.80;99.90
41939;DHT22;23057;48.554;14.454;2023-04-24T02:32:16;8.80;99.90
41939;DHT22;23057;48.554;14.454;2023-04-24T02:34:47;8.90;99.90
41939;DHT22;23057;48.554;14.454;2023-04-24T02:37:17;8.80;99.90
41939;DHT22;23057;48.554;14.454;2023-04-24T02:39:48;8.80;99.90
41939;DHT22;23057;48.554;14.454;2023-04-24T02:42:19;8.80;99.90
41939;DHT22;23057;48.554;14.454;2023-04-24T02:44:50;8.80;99.90
41939;DHT22;23057;48.554;14.454;2023-04-24T02:47:21;8.80;99.90
41939;DHT22;23057;48.554;14.454;2023-04-24T02:49:52;8.80;99.90
41939;DHT22;23057;48.554;14.454;2023-04-24T02:52:22;8.80;99.90
41939;DHT22;23057;48.554;14.454;2023-04-24T02:54:53;8.90;99.90
41939;DHT22;23057;48.554;14.454;2023-04-24T02:57:24;8.90;99.90
41939;DHT22;23057;48.554;14.454;2023-04-24T02:59:55;8.80;99.90
41939;DHT22;23057;48.554;14.454;2023-04-24T03:02:26;8.80;99.90
41939;DHT22;23057;48.554;14.454;2023-04-24T03:04:56;8.80;99.90
41939;DHT22;23057;48.554;14.454;2023-04-24T03:07:27;8.80;99.90
41939;DHT22;23057;48.554;14.454;2023-04-24T03:09:58;8.80;99.90
41939;DHT22;23057;48.554;14.454;2023-04-24T03:12:29;8.80;99.90
41939;DHT22;23057;48.554;14.454;2023-04-24T03:15:00;8.80;99.90
41939;DHT22;23057;48.554;14.454;2023-04-24T03:17:31;8.80;99.90
41939;DHT22;23057;48.554;14.454;2023-04-24T03:20:01;8.80;99.90
41939;DHT22;23057;48.554;14.454;2023-04-24T03:22:35;8.80;99.90
41939;DHT22;23057;48.554;14.454;2023-04-24T03:25:06;8.80;99.90
41939;DHT22;23057;48.554;14.454;2023-04-24T03:27:39;8.90;99.90
41939;DHT22;23057;48.554;14.454;2023-04-24T03:30:10;8.90;99.90
41939;DHT22;23057;48.554;14.454;2023-04-24T03:32:41;8.70;99.90
41939;DHT22;23057;48.554;14.454;2023-04-24T03:35:11;8.50;99.90
41939;DHT22;23057;48.554;14.454;2023-04-24T03:37:42;8.40;99.90
41939;DHT22;23057;48.554;14.454;2023-04-24T03:40:13;8.30;99.90
41939;DHT22;23057;48.554;14.454;2023-04-24T03:42:43;8.40;99.90
41939;DHT22;23057;48.554;14.454;2023-04-24T03:45:14;8.40;99.90
41939;DHT22;23057;48.554;14.454;2023-04-24T03:47:45;8.40;99.90
41939;DHT22;23057;48.554;14.454;2023-04-24T03:50:16;8.50;99.90
41939;DHT22;23057;48.554;14.454;2023-04-24T03:52:47;8.60;99.90
41939;DHT22;23057;48.554;14.454;2023-04-24T03:55:17;8.60;99.90
41939;DHT22;23057;48.554;14.454;2023-04-24T03:57:48;8.70;99.90
41939;DHT22;23057;48.554;14.454;2023-04-24T04:00:19;8.70;99.90
41939;DHT22;23057;48.554;14.454;2023-04-24T04:02:51;8.70;99.90
41939;DHT22;23057;48.554;14.454;2023-04-24T04:05:22;8.80;99.90
41939;DHT22;23057;48.554;14.454;2023-04-24T04:07:52;8.80;99.90
41939;DHT22;23057;48.554;14.454;2023-04-24T04:10:23;8.80;99.90
41939;DHT22;23057;48.554;14.454;2023-04-24T04:12:54;8.80;99.90
41939;DHT22;23057;48.554;14.454;2023-04-24T04:15:24;8.80;99.90
41939;DHT22;23057;48.554;14.454;2023-04-24T04:17:55;8.90;99.90
41939;DHT22;23057;48.554;14.454;2023-04-24T04:20:26;8.90;99.90
41939;DHT22;23057;48.554;14.454;2023-04-24T04:22:57;8.90;99.90
41939;DHT22;23057;48.554;14.454;2023-04-24T04:25:27;8.90;99.90
41939;DHT22;23057;48.554;14.454;2023-04-24T04:27:59;8.90;99.90
41939;DHT22;23057;48.554;14.454;2023-04-24T04:30:30;8.90;99.90
41939;DHT22;23057;48.554;14.454;2023-04-24T04:33:02;8.90;99.90
41939;DHT22;23057;48.554;14.454;2023-04-24T04:35:33;8.90;99.90
41939;DHT22;23057;48.554;14.454;2023-04-24T04:38:04;8.90;99.90
41939;DHT22;23057;48.554;14.454;2023-04-24T04:40:38;9.00;99.90
41939;DHT22;23057;48.554;14.454;2023-04-24T04:43:09;9.00;99.90
41939;DHT22;23057;48.554;14.454;2023-04-24T04:45:41;9.10;99.90
41939;DHT22;23057;48.554;14.454;2023-04-24T04:48:13;9.10;99.90
41939;DHT22;23057;48.554;14.454;2023-04-24T04:50:44;9.20;99.90
41939;DHT22;23057;48.554;14.454;2023-04-24T04:53:15;9.20;99.90
41939;DHT22;23057;48.554;14.454;2023-04-24T04:55:46;9.20;99.90
41939;DHT22;23057;48.554;14.454;2023-04-24T04:58:17;9.30;99.90
41939;DHT22;23057;48.554;14.454;2023-04-24T05:00:48;9.30;99.90
41939;DHT22;23057;48.554;14.454;2023-04-24T05:03:19;9.30;99.90
41939;DHT22;23057;48.554;14.454;2023-04-24T05:05:50;9.30;99.90
41939;DHT22;23057;48.554;14.454;2023-04-24T05:08:21;9.30;99.90
41939;DHT22;23057;48.554;14.454;2023-04-24T05:10:51;9.30;99.90
41939;DHT22;23057;48.554;14.454;2023-04-24T05:13:22;9.30;99.90
41939;DHT22;23057;48.554;14.454;2023-04-24T05:15:53;9.30;99.90
41939;DHT22;23057;48.554;14.454;2023-04-24T05:18:24;9.30;99.90
41939;DHT22;23057;48.554;14.454;2023-04-24T05:20:54;9.30;99.90
41939;DHT22;23057;48.554;14.454;2023-04-24T05:23:25;9.30;99.90
41939;DHT22;23057;48.554;14.454;2023-04-24T05:25:56;9.30;99.90
41939;DHT22;23057;48.554;14.454;2023-04-24T05:28:27;9.30;99.90
41939;DHT22;23057;48.554;14.454;2023-04-24T05:30:58;9.30;99.90
41939;DHT22;23057;48.554;14.454;2023-04-24T05:33:29;9.30;99.90
41939;DHT22;23057;48.554;14.454;2023-04-24T05:36:00;9.30;99.90
41939;DHT22;23057;48.554;14.454;2023-04-24T05:38:31;9.30;99.90
41939;DHT22;23057;48.554;14.454;2023-04-24T05:41:02;9.30;99.90
41939;DHT22;23057;48.554;14.454;2023-04-24T05:43:33;9.20;99.90
41939;DHT22;23057;48.554;14.454;2023-04-24T05:46:03;9.20;99.90
41939;DHT22;23057;48.554;14.454;2023-04-24T05:48:35;9.20;99.90
41939;DHT22;23057;48.554;14.454;2023-04-24T05:51:05;9.20;99.90
41939;DHT22;23057;48.554;14.454;2023-04-24T05:53:36;9.20;99.90
41939;DHT22;23057;48.554;14.454;2023-04-24T05:56:07;9.20;99.90
41939;DHT22;23057;48.554;14.454;2023-04-24T05:58:38;9.30;99.90
41939;DHT22;23057;48.554;14.454;2023-04-24T06:01:09;9.40;99.90
41939;DHT22;23057;48.554;14.454;2023-04-24T06:03:40;9.40;99.90
41939;DHT22;23057;48.554;14.454;2023-04-24T06:06:11;9.40;99.90
41939;DHT22;23057;48.554;14.454;2023-04-24T06:08:42;9.50;99.90
41939;DHT22;23057;48.554;14.454;2023-04-24T06:11:14;9.60;99.90
41939;DHT22;23057;48.554;14.454;2023-04-24T06:13:45;9.70;99.90
41939;DHT22;23057;48.554;14.454;2023-04-24T06:16:15;9.60;99.90
41939;DHT22;23057;48.554;14.454;2023-04-24T06:18:46;9.60;99.90
41939;DHT22;23057;48.554;14.454;2023-04-24T06:21:17;9.70;99.90
41939;DHT22;23057;48.554;14.454;2023-04-24T06:23:48;9.70;99.90
41939;DHT22;23057;48.554;14.454;2023-04-24T06:26:19;9.70;99.90
41939;DHT22;23057;48.554;14.454;2023-04-24T06:28:50;9.70;99.90
41939;DHT22;23057;48.554;14.454;2023-04-24T06:31:21;9.70;99.90
41939;DHT22;23057;48.554;14.454;2023-04-24T06:33:52;9.80;99.90
41939;DHT22;23057;48.554;14.454;2023-04-24T06:36:23;9.90;99.90
41939;DHT22;23057;48.554;14.454;2023-04-24T06:38:54;9.90;99.90
41939;DHT22;23057;48.554;14.454;2023-04-24T06:41:24;9.90;99.90
41939;DHT22;23057;48.554;14.454;2023-04-24T06:43:56;10.00;99.90
41939;DHT22;23057;48.554;14.454;2023-04-24T06:46:26;10.00;99.90
41939;DHT22;23057;48.554;14.454;2023-04-24T06:48:57;10.00;99.90
41939;DHT22;23057;48.554;14.454;2023-04-24T06:51:28;10.00;99.90
41939;DHT22;23057;48.554;14.454;2023-04-24T06:53:59;10.10;99.90
41939;DHT22;23057;48.554;14.454;2023-04-24T06:56:30;10.10;99.90
41939;DHT22;23057;48.554;14.454;2023-04-24T06:59:01;10.20;99.90
41939;DHT22;23057;48.554;14.454;2023-04-24T07:01:32;10.20;99.90
41939;DHT22;23057;48.554;14.454;2023-04-24T07:04:02;10.10;99.90
41939;DHT22;23057;48.554;14.454;2023-04-24T07:06:33;10.10;99.90
41939;DHT22;23057;48.554;14.454;2023-04-24T07:09:05;10.10;99.90
41939;DHT22;23057;48.554;14.454;2023-04-24T07:11:36;10.10;99.90
41939;DHT22;23057;48.554;14.454;2023-04-24T07:14:08;9.90;99.90
41939;DHT22;23057;48.554;14.454;2023-04-24T07:16:40;9.80;99.90
41939;DHT22;23057;48.554;14.454;2023-04-24T07:19:11;9.60;99.90
41939;DHT22;23057;48.554;14.454;2023-04-24T07:21:43;9.50;99.90
41939;DHT22;23057;48.554;14.454;2023-04-24T07:24:14;9.50;99.90
41939;DHT22;23057;48.554;14.454;2023-04-24T07:26:45;9.40;99.90
41939;DHT22;23057;48.554;14.454;2023-04-24T07:29:17;9.40;99.90
41939;DHT22;23057;48.554;14.454;2023-04-24T07:31:48;9.40;99.90
41939;DHT22;23057;48.554;14.454;2023-04-24T07:34:19;9.40;99.90
41939;DHT22;23057;48.554;14.454;2023-04-24T07:36:50;9.30;99.90
41939;DHT22;23057;48.554;14.454;2023-04-24T07:39:21;9.30;99.90
41939;DHT22;23057;48.554;14.454;2023-04-24T07:41:53;9.30;99.90
41939;DHT22;23057;48.554;14.454;2023-04-24T07:44:24;9.30;99.90
41939;DHT22;23057;48.554;14.454;2023-04-24T07:46:55;9.30;99.90
41939;DHT22;23057;48.554;14.454;2023-04-24T07:49:26;9.30;99.90
41939;DHT22;23057;48.554;14.454;2023-04-24T07:51:58;9.30;99.90
41939;DHT22;23057;48.554;14.454;2023-04-24T07:54:30;9.50;99.90
41939;DHT22;23057;48.554;14.454;2023-04-24T07:57:01;9.50;99.90
41939;DHT22;23057;48.554;14.454;2023-04-24T07:59:32;9.40;99.90
41939;DHT22;23057;48.554;14.454;2023-04-24T08:02:02;9.50;99.90
41939;DHT22;23057;48.554;14.454;2023-04-24T08:04:33;9.60;99.90
41939;DHT22;23057;48.554;14.454;2023-04-24T08:07:05;9.60;99.90
41939;DHT22;23057;48.554;14.454;2023-04-24T08:09:38;9.60;99.90
41939;DHT22;23057;48.554;14.454;2023-04-24T08:12:09;9.80;99.90
41939;DHT22;23057;48.554;14.454;2023-04-24T08:14:40;9.80;99.90
41939;DHT22;23057;48.554;14.454;2023-04-24T08:17:10;9.70;99.90
41939;DHT22;23057;48.554;14.454;2023-04-24T08:19:41;9.70;99.90
41939;DHT22;23057;48.554;14.454;2023-04-24T08:22:18;9.80;99.90
41939;DHT22;23057;48.554;14.454;2023-04-24T08:24:49;9.70;99.90
41939;DHT22;23057;48.554;14.454;2023-04-24T08:27:20;9.70;99.90
41939;DHT22;23057;48.554;14.454;2023-04-24T08:29:50;9.80;99.90
41939;DHT22;23057;48.554;14.454;2023-04-24T08:32:23;9.90;99.90
41939;DHT22;23057;48.554;14.454;2023-04-24T08:34:55;10.00;99.90
41939;DHT22;23057;48.554;14.454;2023-04-24T08:37:27;10.00;99.90
41939;DHT22;23057;48.554;14.454;2023-04-24T08:39:57;9.90;99.90
41939;DHT22;23057;48.554;14.454;2023-04-24T08:42:28;10.00;99.90
41939;DHT22;23057;48.554;14.454;2023-04-24T08:45:03;10.00;99.90
41939;DHT22;23057;48.554;14.454;2023-04-24T08:47:35;10.00;99.90
41939;DHT22;23057;48.554;14.454;2023-04-24T08:50:09;10.10;99.90
41939;DHT22;23057;48.554;14.454;2023-04-24T08:52:42;10.10;99.90
41939;DHT22;23057;48.554;14.454;2023-04-24T08:55:13;10.10;99.90
41939;DHT22;23057;48.554;14.454;2023-04-24T08:57:45;10.20;99.90
41939;DHT22;23057;48.554;14.454;2023-04-24T09:00:20;10.30;99.90
41939;DHT22;23057;48.554;14.454;2023-04-24T09:02:52;10.40;99.90
41939;DHT22;23057;48.554;14.454;2023-04-24T09:05:24;10.40;99.90
41939;DHT22;23057;48.554;14.454;2023-04-24T09:07:56;10.40;99.90
41939;DHT22;23057;48.554;14.454;2023-04-24T09:10:29;10.20;99.90
41939;DHT22;23057;48.554;14.454;2023-04-24T09:13:00;10.30;99.90
41939;DHT22;23057;48.554;14.454;2023-04-24T09:15:32;10.40;99.90
41939;DHT22;23057;48.554;14.454;2023-04-24T09:18:03;10.30;99.90
41939;DHT22;23057;48.554;14.454;2023-04-24T09:20:34;10.30;99.90
41939;DHT22;23057;48.554;14.454;2023-04-24T09:23:30;10.30;99.90
41939;DHT22;23057;48.554;14.454;2023-04-24T09:26:02;10.40;99.90
41939;DHT22;23057;48.554;14.454;2023-04-24T09:28:37;10.40;99.90
41939;DHT22;23057;48.554;14.454;2023-04-24T09:31:14;10.60;99.90
41939;DHT22;23057;48.554;14.454;2023-04-24T09:33:55;10.60;99.90
41939;DHT22;23057;48.554;14.454;2023-04-24T09:36:30;10.50;99.90
41939;DHT22;23057;48.554;14.454;2023-04-24T09:39:09;10.70;99.90
41939;DHT22;23057;48.554;14.454;2023-04-24T09:41:49;10.80;99.90
41939;DHT22;23057;48.554;14.454;2023-04-24T09:44:27;10.80;99.90
41939;DHT22;23057;48.554;14.454;2023-04-24T09:46:59;10.90;99.90
41939;DHT22;23057;48.554;14.454;2023-04-24T09:49:30;10.90;99.90
41939;DHT22;23057;48.554;14.454;2023-04-24T09:52:07;10.70;99.90
41939;DHT22;23057;48.554;14.454;2023-04-24T09:54:41;10.90;99.90
41939;DHT22;23057;48.554;14.454;2023-04-24T09:57:14;11.00;99.90
41939;DHT22;23057;48.554;14.454;2023-04-24T09:59:45;11.20;99.90
41939;DHT22;23057;48.554;14.454;2023-04-24T10:02:17;11.50;99.90
41939;DHT22;23057;48.554;14.454;2023-04-24T10:04:56;11.30;99.90
41939;DHT22;23057;48.554;14.454;2023-04-24T10:07:29;11.40;99.90
41939;DHT22;23057;48.554;14.454;2023-04-24T10:10:03;11.30;99.90
41939;DHT22;23057;48.554;14.454;2023-04-24T10:12:35;11.20;99.90
41939;DHT22;23057;48.554;14.454;2023-04-24T10:15:06;10.80;99.90
41939;DHT22;23057;48.554;14.454;2023-04-24T10:17:42;10.60;99.90
41939;DHT22;23057;48.554;14.454;2023-04-24T10:20:23;10.40;99.90
41939;DHT22;23057;48.554;14.454;2023-04-24T10:23:00;10.40;99.90
41939;DHT22;23057;48.554;14.454;2023-04-24T10:25:32;10.30;99.90
41939;DHT22;23057;48.554;14.454;2023-04-24T10:28:05;10.40;99.90
41939;DHT22;23057;48.554;14.454;2023-04-24T10:30:36;10.50;99.90
41939;DHT22;23057;48.554;14.454;2023-04-24T10:33:07;10.40;99.90
41939;DHT22;23057;48.554;14.454;2023-04-24T10:35:40;10.30;99.90
41939;DHT22;23057;48.554;14.454;2023-04-24T10:38:16;10.40;99.90
41939;DHT22;23057;48.554;14.454;2023-04-24T10:41:06;10.40;99.90
41939;DHT22;23057;48.554;14.454;2023-04-24T10:43:40;10.10;99.90
41939;DHT22;23057;48.554;14.454;2023-04-24T10:46:16;10.20;99.90
41939;DHT22;23057;48.554;14.454;2023-04-24T10:48:52;10.30;99.90
41939;DHT22;23057;48.554;14.454;2023-04-24T10:51:42;10.40;99.90
41939;DHT22;23057;48.554;14.454;2023-04-24T10:54:34;10.40;99.90
41939;DHT22;23057;48.554;14.454;2023-04-24T11:02:50;11.00;99.90
41939;DHT22;23057;48.554;14.454;2023-04-24T11:05:49;11.20;99.90
41939;DHT22;23057;48.554;14.454;2023-04-24T11:08:26;11.10;99.90
41939;DHT22;23057;48.554;14.454;2023-04-24T11:11:16;11.70;99.90
41939;DHT22;23057;48.554;14.454;2023-04-24T11:19:27;12.60;99.90
41939;DHT22;23057;48.554;14.454;2023-04-24T11:21:59;12.50;99.90
41939;DHT22;23057;48.554;14.454;2023-04-24T11:24:37;12.60;99.90
41939;DHT22;23057;48.554;14.454;2023-04-24T11:27:15;12.70;99.90
41939;DHT22;23057;48.554;14.454;2023-04-24T11:35:08;12.20;99.90
41939;DHT22;23057;48.554;14.454;2023-04-24T11:37:48;12.30;99.90
41939;DHT22;23057;48.554;14.454;2023-04-24T11:40:22;12.40;99.90
41939;DHT22;23057;48.554;14.454;2023-04-24T11:42:53;12.40;99.90
41939;DHT22;23057;48.554;14.454;2023-04-24T11:45:30;12.40;99.90
41939;DHT22;23057;48.554;14.454;2023-04-24T11:48:02;12.10;99.90
41939;DHT22;23057;48.554;14.454;2023-04-24T11:50:33;12.10;99.90
41939;DHT22;23057;48.554;14.454;2023-04-24T11:53:05;12.10;99.90
41939;DHT22;23057;48.554;14.454;2023-04-24T11:55:36;12.10;99.90
41939;DHT22;23057;48.554;14.454;2023-04-24T11:58:06;12.30;99.90
41939;DHT22;23057;48.554;14.454;2023-04-24T12:00:37;12.10;99.90
41939;DHT22;23057;48.554;14.454;2023-04-24T12:03:11;12.20;80.10
41939;DHT22;23057;48.554;14.454;2023-04-24T12:05:42;12.00;1.00
41939;DHT22;23057;48.554;14.454;2023-04-24T12:08:30;12.00;99.90
41939;DHT22;23057;48.554;14.454;2023-04-24T12:11:03;11.90;99.90
41939;DHT22;23057;48.554;14.454;2023-04-24T12:13:37;11.80;99.90
41939;DHT22;23057;48.554;14.454;2023-04-24T12:16:08;11.60;99.90
41939;DHT22;23057;48.554;14.454;2023-04-24T12:18:42;11.00;99.90
41939;DHT22;23057;48.554;14.454;2023-04-24T12:21:21;10.50;99.90
41939;DHT22;23057;48.554;14.454;2023-04-24T12:23:54;10.50;99.90
41939;DHT22;23057;48.554;14.454;2023-04-24T12:26:26;10.60;99.90
41939;DHT22;23057;48.554;14.454;2023-04-24T12:29:01;10.70;99.90
41939;DHT22;23057;48.554;14.454;2023-04-24T12:31:33;10.80;99.90
41939;DHT22;23057;48.554;14.454;2023-04-24T12:34:04;10.90;99.90
41939;DHT22;23057;48.554;14.454;2023-04-24T12:36:51;10.90;99.90
41939;DHT22;23057;48.554;14.454;2023-04-24T12:39:22;10.70;99.90
41939;DHT22;23057;48.554;14.454;2023-04-24T12:41:56;10.60;99.90
41939;DHT22;23057;48.554;14.454;2023-04-24T12:44:33;10.70;99.90
41939;DHT22;23057;48.554;14.454;2023-04-24T12:47:05;10.90;99.90
41939;DHT22;23057;48.554;14.454;2023-04-24T12:49:36;11.00;99.90
41939;DHT22;23057;48.554;14.454;2023-04-24T12:52:07;10.90;99.90
41939;DHT22;23057;48.554;14.454;2023-04-24T12:54:38;10.70;99.90
41939;DHT22;23057;48.554;14.454;2023-04-24T12:57:08;10.60;99.90
41939;DHT22;23057;48.554;14.454;2023-04-24T12:59:39;10.60;99.90
41939;DHT22;23057;48.554;14.454;2023-04-24T13:02:10;10.60;99.90
41939;DHT22;23057;48.554;14.454;2023-04-24T13:04:42;10.50;99.90
41939;DHT22;23057;48.554;14.454;2023-04-24T13:07:14;10.60;99.90
41939;DHT22;23057;48.554;14.454;2023-04-24T13:09:45;10.40;99.90
41939;DHT22;23057;48.554;14.454;2023-04-24T13:12:19;10.50;99.90
41939;DHT22;23057;48.554;14.454;2023-04-24T13:14:50;10.50;99.90
41939;DHT22;23057;48.554;14.454;2023-04-24T13:17:21;10.60;99.90
41939;DHT22;23057;48.554;14.454;2023-04-24T13:19:53;10.50;99.90
41939;DHT22;23057;48.554;14.454;2023-04-24T13:22:25;10.70;99.90
41939;DHT22;23057;48.554;14.454;2023-04-24T13:24:56;10.80;99.90
41939;DHT22;23057;48.554;14.454;2023-04-24T13:27:27;10.70;99.90
41939;DHT22;23057;48.554;14.454;2023-04-24T13:29:58;10.50;1.00
41939;DHT22;23057;48.554;14.454;2023-04-24T13:32:28;10.70;99.90
41939;DHT22;23057;48.554;14.454;2023-04-24T13:34:59;10.80;1.00
41939;DHT22;23057;48.554;14.454;2023-04-24T13:37:30;11.00;99.90
41939;DHT22;23057;48.554;14.454;2023-04-24T13:40:01;11.30;99.90
41939;DHT22;23057;48.554;14.454;2023-04-24T13:42:31;11.30;99.90
41939;DHT22;23057;48.554;14.454;2023-04-24T13:45:02;11.70;99.90
41939;DHT22;23057;48.554;14.454;2023-04-24T13:47:34;11.70;1.00
41939;DHT22;23057;48.554;14.454;2023-04-24T13:50:05;11.90;99.90
41939;DHT22;23057;48.554;14.454;2023-04-24T13:52:38;11.80;99.90
41939;DHT22;23057;48.554;14.454;2023-04-24T13:55:09;11.90;99.90
41939;DHT22;23057;48.554;14.454;2023-04-24T13:57:40;11.90;99.90
41939;DHT22;23057;48.554;14.454;2023-04-24T14:00:11;11.70;99.90
41939;DHT22;23057;48.554;14.454;2023-04-24T14:02:43;11.50;99.90
41939;DHT22;23057;48.554;14.454;2023-04-24T14:05:14;11.40;99.90
41939;DHT22;23057;48.554;14.454;2023-04-24T14:07:45;11.20;99.90
41939;DHT22;23057;48.554;14.454;2023-04-24T14:10:16;11.20;99.90
41939;DHT22;23057;48.554;14.454;2023-04-24T14:12:47;11.00;99.90
41939;DHT22;23057;48.554;14.454;2023-04-24T14:15:18;11.10;99.90
41939;DHT22;23057;48.554;14.454;2023-04-24T14:17:49;11.10;99.90
41939;DHT22;23057;48.554;14.454;2023-04-24T14:20:20;11.20;99.90
41939;DHT22;23057;48.554;14.454;2023-04-24T14:22:51;11.00;99.90
41939;DHT22;23057;48.554;14.454;2023-04-24T14:25:23;11.10;99.90
41939;DHT22;23057;48.554;14.454;2023-04-24T14:27:54;11.20;99.90
41939;DHT22;23057;48.554;14.454;2023-04-24T14:30:25;11.30;99.90
41939;DHT22;23057;48.554;14.454;2023-04-24T14:32:56;11.30;99.90
41939;DHT22;23057;48.554;14.454;2023-04-24T14:35:26;11.30;99.90
41939;DHT22;23057;48.554;14.454;2023-04-24T14:37:58;11.50;97.80
41939;DHT22;23057;48.554;14.454;2023-04-24T14:40:29;11.40;99.90
41939;DHT22;23057;48.554;14.454;2023-04-24T14:43:01;11.40;3.50
41939;DHT22;23057;48.554;14.454;2023-04-24T14:45:32;11.30;99.90
41939;DHT22;23057;48.554;14.454;2023-04-24T14:48:03;11.20;1.00
41939;DHT22;23057;48.554;14.454;2023-04-24T14:50:35;11.40;99.90
41939;DHT22;23057;48.554;14.454;2023-04-24T14:53:06;11.30;7.80
41939;DHT22;23057;48.554;14.454;2023-04-24T14:55:36;11.20;82.70
41939;DHT22;23057;48.554;14.454;2023-04-24T14:58:08;11.20;99.90
41939;DHT22;23057;48.554;14.454;2023-04-24T15:00:39;10.90;99.90
41939;DHT22;23057;48.554;14.454;2023-04-24T15:03:09;10.80;99.90
41939;DHT22;23057;48.554;14.454;2023-04-24T15:05:40;10.40;99.90
41939;DHT22;23057;48.554;14.454;2023-04-24T15:08:11;10.10;1.00
41939;DHT22;23057;48.554;14.454;2023-04-24T15:10:42;10.10;90.40
41939;DHT22;23057;48.554;14.454;2023-04-24T15:13:14;10.00;1.00
41939;DHT22;23057;48.554;14.454;2023-04-24T15:15:46;9.60;99.90
41939;DHT22;23057;48.554;14.454;2023-04-24T15:18:17;9.50;99.90
41939;DHT22;23057;48.554;14.454;2023-04-24T15:20:48;9.40;99.90
41939;DHT22;23057;48.554;14.454;2023-04-24T15:23:19;9.30;22.60
41939;DHT22;23057;48.554;14.454;2023-04-24T15:25:50;9.30;99.90
41939;DHT22;23057;48.554;14.454;2023-04-24T15:28:20;9.30;1.00
41939;DHT22;23057;48.554;14.454;2023-04-24T15:30:51;9.30;84.40
41939;DHT22;23057;48.554;14.454;2023-04-24T15:33:22;9.30;37.70
41939;DHT22;23057;48.554;14.454;2023-04-24T15:35:53;9.50;27.60
41939;DHT22;23057;48.554;14.454;2023-04-24T15:38:26;9.50;65.60
41939;DHT22;23057;48.554;14.454;2023-04-24T15:40:57;9.60;68.10
41939;DHT22;23057;48.554;14.454;2023-04-24T15:43:28;9.50;1.00
41939;DHT22;23057;48.554;14.454;2023-04-24T15:46:01;9.60;1.00
41939;DHT22;23057;48.554;14.454;2023-04-24T15:48:34;9.60;99.90
41939;DHT22;23057;48.554;14.454;2023-04-24T15:51:04;9.70;1.00
41939;DHT22;23057;48.554;14.454;2023-04-24T15:53:35;9.80;1.00
41939;DHT22;23057;48.554;14.454;2023-04-24T15:56:06;9.60;99.90
41939;DHT22;23057;48.554;14.454;2023-04-24T15:58:37;9.60;99.90
41939;DHT22;23057;48.554;14.454;2023-04-24T16:01:08;9.70;99.90
41939;DHT22;23057;48.554;14.454;2023-04-24T16:03:38;9.70;99.90
41939;DHT22;23057;48.554;14.454;2023-04-24T16:06:09;9.70;99.90
41939;DHT22;23057;48.554;14.454;2023-04-24T16:08:40;9.60;1.00
41939;DHT22;23057;48.554;14.454;2023-04-24T16:11:11;9.50;1.00